Flight Track Log - Related Links

Times and Time Zones

All times are in EDT time to prevent confusion due to time zone crossing. See the AWE544 flight status page for this flight to view local times or setup timezone preferences in your user account.

Time Position Orientation Groundspeed Altitude Reporting Facility
EDT Latitude Longitude Course Direction KTS MPH feet Rate Location/Type
Mon 03:26:24 PM 33.4333 -112.0500 82° East 182 209 2,200  Level Phoenix TRACON
Mon 03:26:54 PM 33.4167 -112.0667 220° Southwest 192 221 3,100 1,682 Climbing Phoenix TRACON
Mon 03:29:00 PM 33.4949 -111.4002 79° East  Level FlightAware Approximate
Mon 03:30:00 PM 33.5132 -111.2477 82° East  Level FlightAware Approximate
Mon 03:31:00 PM 33.5252 -111.0945 82° East  Level FlightAware Approximate
Mon 03:32:35 PM 33.3114 -111.8393 64° Northeast 411 473 12,600  Level FlightAware ADS-B (VRMM / MLE)
Mon 03:33:06 PM 33.3378 -111.7755 65° Northeast 417 480 13,700 2,113 Climbing FlightAware ADS-B (VRMM / MLE)
Mon 03:33:46 PM 33.3725 -111.6917 65° Northeast 426 490 15,100 2,197 Climbing FlightAware ADS-B (VRMM / MLE)
Mon 03:34:17 PM 33.4001 -111.6249 64° Northeast 433 498 16,300 2,057 Climbing FlightAware ADS-B (VRMM / MLE)
Mon 03:34:56 PM 33.4353 -111.5394 64° Northeast 441 507 17,500 1,800 Climbing FlightAware ADS-B (VRMM / MLE)
Mon 03:35:27 PM 33.4630 -111.4722 64° Northeast 448 516 18,400 1,935 Climbing FlightAware ADS-B (VRMM / MLE)
Mon 03:35:58 PM 33.4926 -111.3993 67° East 451 519 19,500 1,754 Climbing FlightAware ADS-B (VRMM / MLE)
Mon 03:36:32 PM 33.5081 -111.3188 83° East 462 532 20,300 1,448 Climbing FlightAware ADS-B (VRMM / MLE)
Mon 03:37:25 PM 33.5235 -111.1817 83° East 473 544 21,600 1,093 Climbing FlightAware ADS-B (VRMM / MLE)
Mon 03:41:01 PM 33.6465 -110.6119 69° East 511 588 25,200 1,021 Climbing FlightAware ADS-B (KPAN)
Mon 03:43:00 PM 33.7499 -110.2917 69° East 527 606 27,300 1,071 Climbing FlightAware ADS-B (KPAN)
Mon 03:47:22 PM 33.9725 -109.5903 69° East 522 601 32,000 1,006 Climbing FlightAware ADS-B
Mon 03:48:40 PM 34.0432 -109.3634 70° East 507 583 33,000 438 Climbing FlightAware ADS-B
Mon 03:49:39 PM 34.0917 -109.2080 70° East 512 589 33,000  Level FlightAware ADS-B
Mon 03:50:46 PM 34.1476 -109.0269 70° East 511 588 33,000  Level FlightAware ADS-B
Mon 03:51:45 PM 34.1963 -108.8686 70° East 513 590 33,000 363 Level FlightAware ADS-B
Mon 03:53:48 PM 34.2773 -108.5325 96° East 532 612 34,100 619 Climbing FlightAware ADS-B
Mon 03:54:59 PM 34.2568 -108.3283 93° East 521 600 35,000 383 Climbing FlightAware ADS-B
Mon 03:56:09 PM 34.2650 -108.1272 86° East 520 598 35,000  Level FlightAware ADS-B
Mon 03:57:09 PM 34.2767 -107.9473 86° East 526 605 35,000  Level FlightAware ADS-B
Mon 03:59:10 PM 34.2986 -107.5937 86° East 524 603 35,000  Level FlightAware ADS-B
Mon 04:00:12 PM 34.3097 -107.4114 86° East 524 603 35,000  Level FlightAware ADS-B
Mon 04:00:46 PM 34.2986 -107.5937 86° East 524 603 35,000  Level FlightAware ADS-B (KAEG)
Mon 04:02:42 PM 34.3351 -106.9688 86° East 534 615 35,000 30 Level FlightAware ADS-B (KAEG)
Mon 04:04:03 PM 34.3482 -106.7289 86° East 531 611 35,100  Climbing FlightAware ADS-B (KAEG)
Mon 04:05:26 PM 34.3609 -106.4888 86° East 529 609 35,000 -44 Descending FlightAware ADS-B
Mon 04:06:20 PM 34.3686 -106.3382 87° East 531 611 35,000 59 Level FlightAware ADS-B
Mon 04:07:08 PM 34.3686 -106.3382 87° East 531 611 35,100  Climbing FlightAware ADS-B
Mon 04:07:41 PM 34.3797 -106.1072 87° East 532 612 35,000 -63 Descending Albuquerque Center
Mon 04:08:43 PM 34.3881 -105.9278 87° East 531 611 35,000  Level Albuquerque Center
Mon 04:09:45 PM 34.3969 -105.7500 86° East 527 606 35,000 -242 Level Albuquerque Center
Mon 04:10:47 PM 34.4056 -105.5428 87° East 525 604 34,500 -726 Descending Albuquerque Center
Mon 04:11:49 PM 34.4128 -105.3647 87° East 525 604 33,500 -726 Descending Albuquerque Center
Mon 04:12:51 PM 34.4200 -105.1889 87° East 523 602 33,000 -242 Descending Albuquerque Center
Mon 04:13:53 PM 34.4278 -105.0117 87° East 523 602 33,000  Level Albuquerque Center
Mon 04:14:55 PM 34.4350 -104.8358 87° East 522 601 33,000 48 Level Albuquerque Center
Mon 04:15:57 PM 34.4408 -104.6589 88° East 524 603 33,100 48 Climbing Albuquerque Center
Mon 04:16:59 PM 34.4486 -104.4503 87° East 527 606 33,100 -48 Level Albuquerque Center
Mon 04:18:01 PM 34.4550 -104.2742 87° East 524 603 33,000 -48 Descending Albuquerque Center
Mon 04:19:03 PM 34.4611 -104.1017 87° East 516 594 33,000  Level Albuquerque Center
Mon 04:20:05 PM 34.4558 -103.9300 92° East 511 588 33,000  Level Albuquerque Center
Mon 04:21:07 PM 34.4481 -103.7564 93° East 512 589 33,000  Level Albuquerque Center
Mon 04:22:09 PM 34.4408 -103.5828 93° East 514 592 33,000  Level Albuquerque Center
Mon 04:23:11 PM 34.4308 -103.3808 93° East 513 590 33,000 48 Level Albuquerque Center
Mon 04:24:13 PM 34.4231 -103.2056 93° East 516 594 33,100  Climbing Albuquerque Center
Mon 04:25:15 PM 34.4139 -103.0325 94° East 515 593 33,000 -48 Descending Albuquerque Center
Mon 04:26:17 PM 34.4053 -102.8681 94° East 515 593 33,000  Level Albuquerque Center
Mon 04:27:19 PM 34.3967 -102.6964 93° East 514 592 33,000  Level Albuquerque Center
Mon 04:28:21 PM 34.3856 -102.4914 94° East 513 590 33,000  Level Albuquerque Center
Mon 04:29:23 PM 34.3769 -102.3219 93° East 510 587 33,000  Level Albuquerque Center
Mon 04:30:25 PM 34.3672 -102.1514 94° East 510 587 33,000  Level Albuquerque Center
Mon 04:31:27 PM 34.3583 -101.9814 94° East 511 588 33,000  Level Albuquerque Center
Mon 04:32:10 PM 34.3497 -101.8447 94° East 510 587 33,000  Level Fort Worth Center
Mon 04:33:12 PM 34.3397 -101.6758 94° East 508 585 33,000  Level Fort Worth Center
Mon 04:34:15 PM 34.3289 -101.5072 94° East 508 585 33,000  Level Fort Worth Center
Mon 04:35:17 PM 34.3194 -101.3383 94° East 508 585 33,000  Level Fort Worth Center
Mon 04:36:19 PM 34.3056 -101.1389 95° East 505 581 33,000  Level Fort Worth Center
Mon 04:37:21 PM 34.2914 -100.9706 96° East 505 581 33,000  Level Fort Worth Center
Mon 04:38:23 PM 34.2719 -100.8069 98° East 505 581 33,000  Level Fort Worth Center
Mon 04:39:25 PM 34.2517 -100.6422 98° East 499 574 33,000  Level Fort Worth Center
Mon 04:40:27 PM 34.2325 -100.4778 98° East 496 571 33,000  Level Fort Worth Center
Mon 04:41:29 PM 34.2089 -100.3022 99° East 492 566 33,000  Level Fort Worth Center
Mon 04:42:31 PM 34.1747 -100.1397 104° East 495 570 33,000  Level Fort Worth Center
Mon 04:43:33 PM 34.1325 -99.9825 108° East 495 570 33,000  Level Fort Worth Center
Mon 04:44:36 PM 34.0906 -99.8233 108° East 495 570 33,000  Level Fort Worth Center
Mon 04:45:38 PM 34.0475 -99.6644 108° East 495 570 33,000  Level Fort Worth Center
Mon 04:46:40 PM 33.9969 -99.4756 108° East 495 570 33,000 -435 Level Fort Worth Center
Mon 04:47:42 PM 33.9539 -99.3169 108° East 495 570 32,100 -1,210 Descending Fort Worth Center
Mon 04:48:44 PM 33.9117 -99.1619 108° East 490 564 30,500 -1,790 Descending Fort Worth Center
Mon 04:49:46 PM 33.8689 -99.0069 108° East 483 556 28,400 -1,935 Descending Fort Worth Center
Mon 04:50:48 PM 33.8289 -98.8606 108° East 466 536 26,500 -1,548 Descending Fort Worth Center
Mon 04:51:50 PM 33.7864 -98.7247 111° Southeast 442 509 25,200 -1,210 Descending Fort Worth Center
Mon 04:52:52 PM 33.7267 -98.5669 114° Southeast 436 502 24,000 -1,200 Descending Fort Worth Center
Mon 04:53:55 PM 33.6772 -98.4283 113° Southeast 434 499 22,700 -1,488 Descending Fort Worth Center
Mon 04:54:57 PM 33.6322 -98.3064 114° Southeast 418 481 20,900 -1,839 Descending Fort Worth Center
Mon 04:55:59 PM 33.5844 -98.1769 114° Southeast 410 472 18,900 -1,654 Descending Fort Worth Center
Mon 05:01:18 PM 33.3298 -97.6247 129° Southeast 306 352 10,400 -1,588 Descending FlightAware ADS-B
Mon 05:01:39 PM 33.3086 -97.5939 129° Southeast 304 350 9,900 -1,658 Descending FlightAware ADS-B
Mon 05:03:50 PM 33.1973 -97.4339 129° Southeast 287 330 6,200 -1,660 Descending FlightAware ADS-B
Mon 05:04:18 PM 33.1729 -97.3986 129° Southeast 280 322 5,500 -1,347 Descending FlightAware ADS-B
Mon 05:04:39 PM 33.1571 -97.3757 129° Southeast 274 315 5,100 -585 Descending FlightAware ADS-B
Mon 05:04:59 PM 33.1378 -97.3477 129° Southeast 264 304 5,100  Level FlightAware ADS-B
Mon 05:05:19 PM 33.1249 -97.3291 129° Southeast 251 289 5,100  Level FlightAware ADS-B
Mon 05:05:40 PM 33.1103 -97.3082 129° Southeast 246 283 5,100 -732 Level FlightAware ADS-B
Mon 05:06:00 PM 33.0949 -97.2861 129° Southeast 244 281 4,600 -1,317 Descending FlightAware ADS-B
Mon 05:06:21 PM 33.0812 -97.2652 126° Southeast 241 277 4,200 -732 Descending FlightAware ADS-B
Mon 05:06:41 PM 33.0679 -97.2470 135° Southeast 229 264 4,100 -500 Descending FlightAware ADS-B
Mon 05:06:57 PM 33.0533 -97.2312 138° Southeast 216 249 3,900 -486 Descending FlightAware ADS-B
Mon 05:07:18 PM 33.0405 -97.2180 139° Southeast 201 231 3,800 -533 Descending FlightAware ADS-B
Mon 05:07:42 PM 33.0242 -97.2011 139° Southeast 186 214 3,500 -900 Descending FlightAware ADS-B
Mon 05:07:58 PM 33.0126 -97.1890 138° Southeast 182 209 3,200 -811 Descending FlightAware ADS-B
Mon 05:08:19 PM 32.9990 -97.1752 139° Southeast 184 212 3,000 -732 Descending FlightAware ADS-B
Mon 05:08:39 PM 32.9870 -97.1628 138° Southeast 182 209 2,700 -900 Descending FlightAware ADS-B
Mon 05:08:59 PM 32.9735 -97.1489 138° Southeast 164 189 2,400 -1,024 Descending FlightAware ADS-B
Mon 05:09:20 PM 32.9624 -97.1375 139° Southeast 153 176 2,000 -878 Descending FlightAware ADS-B
Mon 05:09:40 PM 32.9534 -97.1282 139° Southeast 154 177 1,800 -750 Descending FlightAware ADS-B
Mon 05:10:00 PM 32.9402 -97.1146 139° Southeast 148 170 1,500 68 Descending FlightAware ADS-B
Mon 05:14:05 PM 32.9874 -97.1631 139° Southeast 155 178 2,100 147 Climbing FlightAware ADS-B (LKPR / PRG)

Login

Don't have an account? Register now (free) for customized features, flight alerts, and more!